Chicago, Illinois
Traffic Map
Current Weather Conditions
Chicago, Illinois
Scattered Clouds
Scattered Clouds
21°
Feels Like: 21°
Wind Chill: 21° Ceiling: Unl
Heat Index: 21° Visibility: 10mi
Dew Point: 11° Wind: 6mph
Humidity: 51% Direction: 40° (NE)
Pressure: 30.07in Gusts: 0mph
Raw Report DataKMDW 282351Z 04005KT 10SM FEW050 SCT250 21/11 A3007 RMK AO2 SLP178 T02110106 10228 20206 58004
Traffic Incident Summary
Active as of:
Severity:
Category:
InformationThere was an issue retrieving the traffic information for this location. Please try a different location or try again shortly.
Advertisements
Track Severe Weather on mobile